This is the latest recevied weather packets stored in our database for station/object IU2PLZ-10. If no packets are shown the sender has not sent any weather packets the latest 10 day(s).
| Time | Temp. | Humidity | Pressure | Rain* | Wind** | Luminosity | Snow |
|---|---|---|---|---|---|---|---|
| 1788475158 | 27.78° C | 69% | 968.8 hPa | - | - | - | - |
| 1788474258 | 27.22° C | 68% | 968.1 hPa | - | - | - | - |
| 1788473358 | 28.33° C | 67% | 969.1 hPa | - | - | - | - |
| 1788472458 | 28.33° C | 67% | 968.8 hPa | - | - | - | - |
| 1788471557 | 28.33° C | 66% | 968.7 hPa | - | - | - | - |
| 1788470657 | 27.78° C | 66% | 967.9 hPa | - | - | - | - |
| 1788469757 | 28.33° C | 64% | 968.6 hPa | - | - | - | - |
| 1788468857 | 27.78° C | 63% | 967.9 hPa | - | - | - | - |
| 1788467073 | 27.78° C | 63% | 967.8 hPa | - | - | - | - |
| 1788466169 | 28.33° C | 62% | 968.3 hPa | - | - | - | - |
| 1788465256 | 25° C | 62% | 963.7 hPa | - | - | - | - |
| 1788464356 | 27.78° C | 61% | 967.5 hPa | - | - | - | - |
| 1788463456 | 28.33° C | 61% | 968.2 hPa | - | - | - | - |
| 1788462572 | 28.33° C | 60% | 967.4 hPa | - | - | - | - |
| 1788461661 | 28.33° C | 60% | 967.3 hPa | - | - | - | - |
| 1788460755 | 28.89° C | 60% | 968.1 hPa | - | - | - | - |
| 1788459855 | 28.89° C | 59% | 967.1 hPa | - | - | - | - |
| 1788458955 | 29.44° C | 59% | 968 hPa | - | - | - | - |
| 1788458055 | 30° C | 58% | 968 hPa | - | - | - | - |
| 1788457165 | 30° C | 57% | 967.9 hPa | - | - | - | - |
| 1788456257 | 30.56° C | 56% | 967.9 hPa | - | - | - | - |
| 1788455361 | 30.56° C | 55% | 967.8 hPa | - | - | - | - |
| 1788454461 | 30.56° C | 54% | 966.8 hPa | - | - | - | - |
| 1788453556 | 31.11° C | 52% | 967.7 hPa | - | - | - | - |
| 1788452661 | 31.67° C | 51% | 967.7 hPa | - | - | - | - |
* Rain since midnight (hover to see other rain measurements)
** Current wind speed in m/s (hover to see current wind gust speed)